Time;durP1;ratioP1;P1;durP2;ratioP2;P2;SDS_P1;SDS_P2;PMS_P1;PMS_P2;Temp;Humidity;BMP_temperature;BMP_pressure;BME280_temperature;BME280_humidity;BME280_pressure;Samples;Min_cycle;Max_cycle;Signal;HPM_P1;HPM_P2
2022/05/16 00:00:07;;;;;;;7.53;4.50;;;;;;;10.21;51.85;98836.94;4982277;28;20038;-76
2022/05/16 00:02:32;;;;;;;8.43;4.03;;;;;;;10.18;52.19;98840.25;4982531;28;20136;-76
2022/05/16 00:04:57;;;;;;;10.27;5.18;;;;;;;10.16;52.06;98838.91;4981979;28;20062;-77
2022/05/16 00:07:23;;;;;;;11.15;5.50;;;;;;;10.10;51.72;98847.16;4982625;28;20022;-77
2022/05/16 00:09:48;;;;;;;9.50;5.72;;;;;;;10.06;51.76;98840.59;4982487;28;20395;-71
2022/05/16 00:12:14;;;;;;;6.68;4.57;;;;;;;10.05;52.42;98836.22;4982753;28;20026;-70
2022/05/16 00:14:42;;;;;;;11.60;5.10;;;;;;;10.02;52.68;98841.44;4980253;28;20034;-72
2022/05/16 00:17:07;;;;;;;8.68;5.18;;;;;;;9.98;52.65;98844.75;4979749;28;20030;-73
2022/05/16 00:19:33;;;;;;;7.60;4.55;;;;;;;9.98;52.31;98846.69;4982743;28;20046;-73
2022/05/16 00:21:59;;;;;;;9.27;4.70;;;;;;;9.94;51.91;98845.63;4982106;28;20036;-73
2022/05/16 00:24:26;;;;;;;9.50;4.90;;;;;;;9.91;52.61;98846.19;4983569;28;20104;-72
2022/05/16 00:26:53;;;;;;;7.57;4.53;;;;;;;9.89;52.81;98851.13;4982180;28;20078;-72
2022/05/16 00:29:19;;;;;;;9.45;4.38;;;;;;;9.86;52.16;98846.19;4981755;28;20050;-73
2022/05/16 00:31:45;;;;;;;9.07;4.45;;;;;;;9.80;52.47;98850.88;4983312;28;20080;-73
2022/05/16 00:34:10;;;;;;;9.75;4.93;;;;;;;9.79;52.83;98847.31;4981836;28;20031;-72
2022/05/16 00:36:36;;;;;;;9.70;4.60;;;;;;;9.76;53.22;98850.63;4981596;28;20077;-73
2022/05/16 00:39:01;;;;;;;10.90;4.80;;;;;;;9.73;52.42;98851.19;4982322;28;20427;-72
2022/05/16 00:41:27;;;;;;;8.35;4.65;;;;;;;9.69;53.09;98850.09;4983105;28;20035;-72
2022/05/16 00:43:57;;;;;;;9.98;4.90;;;;;;;9.66;53.14;98856.13;4981346;28;20033;-73
2022/05/16 00:46:25;;;;;;;8.48;4.90;;;;;;;9.64;53.18;98856.44;4982335;28;20367;-73
2022/05/16 00:48:51;;;;;;;10.50;5.07;;;;;;;9.64;53.03;98850.13;4983666;28;20049;-73
2022/05/16 00:51:55;;;;;;;9.65;5.10;;;;;;;9.64;53.42;98859.16;4982213;28;20065;-72
2022/05/16 00:54:25;;;;;;;8.93;5.30;;;;;;;9.64;53.60;98859.16;4982879;28;20495;-72
2022/05/16 00:56:57;;;;;;;7.65;5.13;;;;;;;9.61;53.23;98847.94;4981248;28;20089;-73
2022/05/16 00:59:31;;;;;;;10.48;5.20;;;;;;;9.57;53.04;98858.66;4981488;28;20037;-72
2022/05/16 01:04:50;;;;;;;8.07;4.40;;;;;;;9.50;53.39;98849.91;4982511;28;20041;-72
2022/05/16 01:07:25;;;;;;;8.05;4.10;;;;;;;9.47;53.40;98847.72;4981699;28;20650;-72
2022/05/16 01:09:50;;;;;;;8.98;4.25;;;;;;;9.45;53.76;98848.00;4980969;28;20033;-72
2022/05/16 01:12:16;;;;;;;8.70;4.20;;;;;;;9.43;53.51;98841.16;4991544;28;20104;-73
2022/05/16 01:14:45;;;;;;;7.55;4.10;;;;;;;9.41;53.50;98846.09;4991542;28;20034;-73
2022/05/16 01:17:11;;;;;;;6.75;4.10;;;;;;;9.36;53.53;98842.31;4990587;28;20567;-73
2022/05/16 01:19:37;;;;;;;8.20;3.83;;;;;;;9.34;53.87;98846.41;4992001;28;20223;-72
2022/05/16 01:22:22;;;;;;;7.13;4.18;;;;;;;9.31;53.58;98839.59;4990561;28;20113;-72
2022/05/16 01:24:48;;;;;;;8.05;4.15;;;;;;;9.27;54.14;98837.66;4991398;28;20038;-72
2022/05/16 01:27:13;;;;;;;6.45;3.63;;;;;;;9.24;53.82;98848.06;4992138;28;20037;-72
2022/05/16 01:29:39;;;;;;;6.88;4.13;;;;;;;9.20;54.50;98849.72;4991651;28;20387;-73
2022/05/16 01:32:05;;;;;;;8.77;3.88;;;;;;;9.18;54.15;98840.16;4992222;28;20411;-72
2022/05/16 01:34:30;;;;;;;6.35;4.20;;;;;;;9.15;54.40;98844.28;4991351;28;20471;-73
2022/05/16 01:36:56;;;;;;;6.70;3.70;;;;;;;9.13;54.38;98846.47;4992689;28;20039;-72
2022/05/16 01:39:21;;;;;;;6.68;3.65;;;;;;;9.08;54.26;98836.34;4992649;28;20030;-72
2022/05/16 01:41:47;;;;;;;7.13;4.20;;;;;;;9.08;54.40;98841.00;4992506;28;20030;-73
2022/05/16 01:44:12;;;;;;;7.45;3.33;;;;;;;9.05;54.63;98847.03;4992435;28;20033;-72
2022/05/16 01:46:40;;;;;;;4.95;3.33;;;;;;;9.02;54.57;98848.38;4992457;28;20033;-73
2022/05/16 01:49:08;;;;;;;5.82;3.70;;;;;;;8.99;54.77;98848.94;4992610;28;20046;-72
2022/05/16 01:51:34;;;;;;;6.25;3.20;;;;;;;8.97;54.93;98847.59;4992304;28;20018;-73
2022/05/16 01:54:03;;;;;;;9.23;3.72;;;;;;;8.94;54.85;98847.03;4992456;28;20501;-72
2022/05/16 01:56:33;;;;;;;5.43;3.35;;;;;;;8.90;54.43;98851.41;4992352;28;20023;-73
2022/05/16 01:58:59;;;;;;;6.30;3.45;;;;;;;8.86;54.69;98850.31;4991848;28;20034;-72
2022/05/16 02:01:25;;;;;;;6.22;3.47;;;;;;;8.81;54.63;98857.72;4992180;28;20061;-72
2022/05/16 02:03:50;;;;;;;5.90;2.95;;;;;;;8.77;54.99;98861.00;4992038;28;20057;-73
2022/05/16 02:06:16;;;;;;;6.47;3.28;;;;;;;8.74;54.89;98863.47;4991960;28;20101;-73
2022/05/16 02:08:43;;;;;;;7.38;3.33;;;;;;;8.69;55.07;98855.28;4990749;28;20162;-72
2022/05/16 02:11:09;;;;;;;7.82;3.30;;;;;;;8.68;55.11;98861.84;4991929;28;20030;-72
2022/05/16 02:13:38;;;;;;;5.32;3.10;;;;;;;8.63;55.00;98862.63;4990659;28;20511;-73
2022/05/16 02:16:05;;;;;;;9.75;3.40;;;;;;;8.58;55.51;98868.09;4991743;28;20041;-72
2022/05/16 02:18:30;;;;;;;7.25;3.13;;;;;;;8.52;55.10;98867.28;4990708;28;20080;-73
2022/05/16 02:24:38;;;;;;;6.53;3.50;;;;;;;8.47;55.20;98865.34;4991753;28;20038;-72
2022/05/16 02:26:26;;;;;;;5.45;3.58;;;;;;;8.38;55.20;98869.72;4994165;28;20045;-73
2022/05/16 02:28:51;;;;;;;6.88;4.25;;;;;;;8.35;55.63;98868.31;4993932;28;20054;-72
2022/05/16 02:31:19;;;;;;;11.02;4.18;;;;;;;8.34;55.94;98876.81;4995723;28;20030;-72
2022/05/16 02:33:45;;;;;;;7.80;4.00;;;;;;;8.32;55.53;98868.91;4994383;28;20117;-73
2022/05/16 02:36:11;;;;;;;6.75;3.85;;;;;;;8.30;55.59;98873.81;4995613;28;20110;-73
2022/05/16 02:38:36;;;;;;;12.18;4.72;;;;;;;8.27;55.73;98866.16;4995588;28;20077;-73
2022/05/16 02:41:02;;;;;;;6.20;3.47;;;;;;;8.26;55.93;98877.34;4995200;28;20042;-72
2022/05/16 02:43:27;;;;;;;9.10;3.78;;;;;;;8.24;55.98;98872.16;4995490;28;20022;-73
2022/05/16 02:45:52;;;;;;;9.98;3.95;;;;;;;8.22;55.71;98874.34;4995340;28;20030;-73
2022/05/16 02:48:18;;;;;;;18.95;6.07;;;;;;;8.20;56.34;98873.78;4995483;28;20053;-73
2022/05/16 02:50:43;;;;;;;12.07;5.30;;;;;;;8.20;56.32;98865.59;4995269;28;20410;-72
2022/05/16 02:53:10;;;;;;;10.80;4.45;;;;;;;8.19;56.59;98872.16;4995303;28;20027;-73
2022/05/16 02:55:37;;;;;;;11.15;4.43;;;;;;;8.20;56.47;98868.31;4995165;28;20042;-73
2022/05/16 02:58:02;;;;;;;10.23;4.65;;;;;;;8.20;56.44;98876.53;4995451;28;20480;-73
2022/05/16 03:00:28;;;;;;;13.10;4.50;;;;;;;8.22;56.59;98874.34;4995145;28;20117;-73
2022/05/16 03:02:53;;;;;;;12.40;5.40;;;;;;;8.22;56.65;98878.97;4994878;28;20085;-72
2022/05/16 03:05:19;;;;;;;17.15;5.50;;;;;;;8.21;56.53;98875.44;4995140;28;20081;-73
2022/05/16 03:07:44;;;;;;;16.33;5.60;;;;;;;8.22;56.81;98877.06;4995110;28;20026;-73
2022/05/16 03:10:15;;;;;;;13.48;5.80;;;;;;;8.20;56.84;98865.59;4995259;28;20033;-72
2022/05/16 03:12:42;;;;;;;17.40;6.20;;;;;;;8.20;56.31;98871.06;4993798;28;20030;-73
2022/05/16 03:15:08;;;;;;;12.75;5.45;;;;;;;8.22;57.05;98874.34;4995179;28;20081;-72
2022/05/16 03:17:33;;;;;;;10.93;5.72;;;;;;;8.22;57.36;98874.34;4994842;28;20026;-73
2022/05/16 03:20:00;;;;;;;12.45;5.45;;;;;;;8.23;56.90;98867.78;4994802;28;20302;-73
2022/05/16 03:22:25;;;;;;;13.55;5.82;;;;;;;8.21;56.97;98878.16;4994816;28;20034;-72
2022/05/16 03:24:51;;;;;;;12.40;5.70;;;;;;;8.22;56.82;98874.34;4994830;28;20077;-73
2022/05/16 03:27:16;;;;;;;11.15;5.43;;;;;;;8.23;56.87;98869.69;4994765;28;20105;-72
2022/05/16 03:29:42;;;;;;;17.23;6.68;;;;;;;8.25;57.11;98871.06;4994643;28;20038;-73
2022/05/16 03:32:07;;;;;;;15.13;6.13;;;;;;;8.25;57.11;98871.06;4994874;28;20034;-73
2022/05/16 03:34:33;;;;;;;17.23;5.85;;;;;;;8.25;57.32;98857.41;4994647;28;20493;-73
2022/05/16 03:36:58;;;;;;;15.45;5.93;;;;;;;8.29;57.31;98868.59;4994130;28;20596;-73
2022/05/16 03:42:08;;;;;;;13.25;5.20;;;;;;;8.34;57.29;98876.81;4994576;28;20313;-73
2022/05/16 03:44:33;;;;;;;13.82;5.95;;;;;;;8.37;57.70;98864.50;4994488;28;20467;-72
2022/05/16 03:46:59;;;;;;;15.30;5.55;;;;;;;8.40;57.61;98858.50;4993004;28;20031;-73
2022/05/16 03:49:24;;;;;;;10.73;6.25;;;;;;;8.44;57.67;98865.91;4994415;28;20042;-73
2022/05/16 03:51:50;;;;;;;13.00;5.60;;;;;;;8.51;57.81;98864.84;4994444;28;20030;-73
2022/05/16 03:54:17;;;;;;;12.30;5.82;;;;;;;8.57;58.13;98871.94;4994542;28;20038;-73
2022/05/16 03:56:42;;;;;;;14.63;6.03;;;;;;;8.62;57.41;98870.03;4994188;28;20030;-72
2022/05/16 03:59:11;;;;;;;17.75;6.35;;;;;;;8.70;58.00;98868.66;4994260;28;20026;-73
2022/05/16 04:01:36;;;;;;;13.30;5.75;;;;;;;8.77;57.86;98871.94;4994098;28;20038;-72
2022/05/16 04:04:02;;;;;;;13.45;6.60;;;;;;;8.83;57.77;98853.59;4994640;28;20057;-72
2022/05/16 04:06:27;;;;;;;15.02;7.43;;;;;;;8.89;57.81;98854.44;4994574;28;20376;-73
2022/05/16 04:08:54;;;;;;;13.35;6.70;;;;;;;8.98;57.89;98860.16;4994106;28;20033;-73
2022/05/16 04:11:19;;;;;;;12.85;6.78;;;;;;;9.04;57.80;98862.59;4994202;28;20030;-73
2022/05/16 04:13:46;;;;;;;12.75;7.18;;;;;;;9.12;57.60;98861.25;4994211;28;20027;-72
2022/05/16 04:16:12;;;;;;;16.02;7.97;;;;;;;9.21;57.72;98861.50;4994161;28;20053;-72
2022/05/16 04:18:39;;;;;;;18.65;8.32;;;;;;;9.31;57.54;98858.75;4994123;28;20110;-72
2022/05/16 04:21:05;;;;;;;16.95;8.40;;;;;;;9.40;57.72;98858.97;4994402;28;20026;-72
2022/05/16 04:23:30;;;;;;;18.58;8.80;;;;;;;9.51;57.85;98860.59;4994206;28;20033;-72
2022/05/16 04:25:56;;;;;;;15.48;9.05;;;;;;;9.61;57.75;98861.63;4993794;28;20110;-73
2022/05/16 04:28:22;;;;;;;16.70;9.55;;;;;;;9.70;58.09;98870.09;4993858;28;20043;-72
2022/05/16 04:30:48;;;;;;;19.17;10.00;;;;;;;9.80;57.96;98868.13;4993839;28;20076;-73
2022/05/16 04:33:13;;;;;;;16.88;9.52;;;;;;;9.91;58.35;98876.31;4992408;28;20440;-73
2022/05/16 04:35:39;;;;;;;17.95;9.45;;;;;;;10.01;58.83;98875.44;4993543;28;20029;-72
2022/05/16 04:38:05;;;;;;;14.75;8.73;;;;;;;10.09;58.31;98870.16;4993629;28;20062;-72
2022/05/16 04:40:31;;;;;;;14.30;8.82;;;;;;;10.18;57.99;98880.53;4993318;28;20061;-73
2022/05/16 04:42:57;;;;;;;17.15;9.75;;;;;;;10.26;58.28;98874.47;4993217;28;20049;-73
2022/05/16 04:45:28;;;;;;;17.13;9.20;;;;;;;10.33;58.18;98872.22;4993497;28;20031;-72
2022/05/16 04:47:57;;;;;;;15.30;9.38;;;;;;;10.42;57.69;98869.72;4992986;28;20034;-73
2022/05/16 04:50:26;;;;;;;16.45;9.52;;;;;;;10.53;58.33;98862.25;4993485;28;20486;-73
2022/05/16 04:52:51;;;;;;;20.23;10.75;;;;;;;10.64;58.76;98869.28;4992962;28;20022;-73
2022/05/16 04:55:18;;;;;;;18.20;10.07;;;;;;;10.74;57.98;98870.31;4993145;28;20498;-72
2022/05/16 04:57:44;;;;;;;16.20;10.70;;;;;;;10.84;57.93;98871.03;4993194;28;20109;-73
2022/05/16 05:00:11;;;;;;;19.60;10.98;;;;;;;10.96;59.19;98870.66;4991332;28;20529;-72
2022/05/16 05:02:38;;;;;;;16.75;10.18;;;;;;;11.07;59.07;98874.13;4992953;28;20040;-73
2022/05/16 05:05:04;;;;;;;17.80;9.65;;;;;;;11.20;58.75;98871.81;4992803;28;20149;-73
2022/05/16 05:07:30;;;;;;;16.33;9.57;;;;;;;11.28;58.22;98879.41;4992879;28;20034;-72
2022/05/16 05:15:24;;;;;;;13.88;8.80;;;;;;;11.57;58.09;98870.31;4993246;28;20069;-72
2022/05/16 05:17:49;;;;;;;13.90;8.27;;;;;;;11.68;58.02;98873.75;4992729;28;20113;-73
2022/05/16 05:20:16;;;;;;;14.32;8.52;;;;;;;11.76;57.23;98875.84;4991784;28;20037;-72
2022/05/16 05:22:44;;;;;;;14.02;8.38;;;;;;;11.86;58.06;98874.88;4991388;28;20129;-72
2022/05/16 05:25:13;;;;;;;13.43;7.80;;;;;;;11.95;57.91;98870.38;4992899;28;20094;-72
2022/05/16 05:27:40;;;;;;;15.77;8.65;;;;;;;12.03;57.23;98872.50;4992694;28;20061;-72
2022/05/16 05:30:08;;;;;;;13.73;8.50;;;;;;;12.13;57.51;98874.28;4992759;28;20026;-72
2022/05/16 05:32:33;;;;;;;12.00;7.90;;;;;;;12.24;56.96;98874.94;4992598;28;20027;-73
2022/05/16 05:34:59;;;;;;;12.00;8.25;;;;;;;12.36;57.28;98874.53;4992537;28;20726;-73
2022/05/16 05:37:24;;;;;;;11.15;7.95;;;;;;;12.49;57.25;98887.50;4992576;28;20100;-73
2022/05/16 05:39:50;;;;;;;13.82;8.38;;;;;;;12.60;56.70;98877.19;4992836;28;20033;-73
2022/05/16 05:42:15;;;;;;;14.40;8.50;;;;;;;12.70;57.33;98873.44;4992657;28;20027;-72
2022/05/16 05:44:40;;;;;;;15.52;8.90;;;;;;;12.80;56.63;98880.72;4992674;28;20029;-73
2022/05/16 05:47:06;;;;;;;15.85;8.55;;;;;;;12.91;57.10;98867.59;4992109;28;20027;-73
2022/05/16 05:49:31;;;;;;;14.32;8.32;;;;;;;13.02;57.19;98871.81;4992625;28;20387;-72
2022/05/16 05:51:58;;;;;;;14.20;8.10;;;;;;;13.12;57.07;98873.56;4992506;28;20030;-70
2022/05/16 05:54:23;;;;;;;13.48;7.38;;;;;;;13.22;56.45;98878.88;4992128;28;20105;-70
2022/05/16 05:56:49;;;;;;;13.13;7.60;;;;;;;13.32;56.47;98868.81;4992155;28;20462;-70
2022/05/16 05:59:14;;;;;;;13.23;7.55;;;;;;;13.44;56.13;98874.66;4992856;28;20045;-70
2022/05/16 06:01:39;;;;;;;17.10;7.15;;;;;;;13.55;56.01;98861.50;4996171;28;20129;-70
2022/05/16 06:04:05;;;;;;;11.95;7.50;;;;;;;13.65;55.93;98864.03;4996275;28;20062;-70
2022/05/16 06:06:30;;;;;;;13.63;7.35;;;;;;;13.75;55.69;98875.97;4994400;28;20502;-71
2022/05/16 06:08:56;;;;;;;11.70;7.13;;;;;;;13.82;55.44;98882.72;4995873;28;20116;-70
2022/05/16 06:11:27;;;;;;;11.52;6.65;;;;;;;13.90;55.44;98878.44;4996222;28;20030;-70
2022/05/16 06:13:53;;;;;;;11.98;6.00;;;;;;;13.98;55.12;98874.94;4996056;28;20023;-70
2022/05/16 06:16:18;;;;;;;11.75;5.95;;;;;;;14.08;54.87;98873.91;4996025;28;20430;-70
2022/05/16 06:18:43;;;;;;;11.93;6.00;;;;;;;14.15;54.46;98876.22;4995808;28;20382;-70
2022/05/16 06:21:09;;;;;;;8.65;5.47;;;;;;;14.24;54.35;98876.34;4995940;28;20113;-70
2022/05/16 06:23:34;;;;;;;9.15;5.57;;;;;;;14.34;54.14;98875.28;4994517;28;20487;-70
2022/05/16 06:26:00;;;;;;;10.27;5.53;;;;;;;14.41;53.79;98878.44;4996082;28;20459;-71
2022/05/16 06:28:27;;;;;;;8.20;5.18;;;;;;;14.49;53.51;98882.38;4995654;28;20125;-70
2022/05/16 06:30:53;;;;;;;13.45;5.55;;;;;;;14.58;53.13;98883.28;4995840;28;20124;-70
2022/05/16 06:33:21;;;;;;;12.13;6.15;;;;;;;14.67;53.03;98870.31;4995983;28;20084;-70
2022/05/16 06:35:47;;;;;;;9.60;5.60;;;;;;;14.76;52.79;98875.97;4995787;28;20390;-71
2022/05/16 06:38:16;;;;;;;9.63;5.32;;;;;;;14.87;52.36;98871.84;4995472;28;20050;-70
2022/05/16 06:40:46;;;;;;;11.67;5.40;;;;;;;14.99;52.56;98870.41;4994204;28;20442;-70
2022/05/16 06:43:12;;;;;;;9.40;5.43;;;;;;;15.09;52.23;98875.69;4994446;28;20053;-70
2022/05/16 06:45:39;;;;;;;10.18;4.70;;;;;;;15.22;52.00;98878.69;4995467;28;20113;-71
2022/05/16 06:48:05;;;;;;;8.35;5.03;;;;;;;15.31;51.69;98882.28;4993952;28;20021;-70
2022/05/16 06:50:33;;;;;;;8.70;4.65;;;;;;;15.41;51.45;98878.47;4995001;28;20113;-70
2022/05/16 06:52:59;;;;;;;7.78;5.03;;;;;;;15.55;51.38;98889.41;4995852;28;20466;-71
2022/05/16 06:55:25;;;;;;;9.60;5.47;;;;;;;15.66;51.29;98885.22;4990001;28;20027;-71
2022/05/16 06:57:50;;;;;;;10.07;5.30;;;;;;;15.75;50.78;98883.28;4989477;28;20019;-69
2022/05/16 07:00:17;;;;;;;7.55;4.97;;;;;;;15.83;51.12;98887.22;4993617;28;20033;-69
2022/05/16 07:02:42;;;;;;;10.88;4.65;;;;;;;15.94;50.68;98885.00;4994179;28;20041;-68
2022/05/16 07:05:08;;;;;;;7.85;5.00;;;;;;;16.01;50.49;98885.34;4999356;28;20096;-68
2022/05/16 07:07:34;;;;;;;7.18;4.45;;;;;;;16.09;49.88;98885.69;4986148;28;20058;-69
2022/05/16 07:10:00;;;;;;;8.10;4.43;;;;;;;16.17;49.84;98882.94;4996732;28;20102;-68
2022/05/16 07:12:25;;;;;;;8.00;4.60;;;;;;;16.28;49.49;98886.19;4994707;28;20426;-69
2022/05/16 07:14:51;;;;;;;7.15;3.80;;;;;;;16.40;49.27;98890.28;4983187;28;20033;-68
2022/05/16 07:17:17;;;;;;;6.68;4.00;;;;;;;16.52;48.87;98890.44;4985486;28;20034;-68
2022/05/16 07:19:43;;;;;;;4.47;3.22;;;;;;;16.62;48.47;98889.31;4993228;28;20482;-69
2022/05/16 07:22:10;;;;;;;7.00;3.60;;;;;;;16.69;47.88;98883.28;4993907;28;20042;-69
2022/05/16 07:24:36;;;;;;;7.03;3.03;;;;;;;16.78;47.77;98889.63;4982927;28;20624;-69
2022/05/16 07:29:46;;;;;;;6.07;3.63;;;;;;;16.98;47.15;98896.47;4985144;28;20057;-68
2022/05/16 07:32:12;;;;;;;6.97;3.65;;;;;;;17.04;46.65;98891.56;4992112;28;20030;-69
2022/05/16 07:34:39;;;;;;;7.43;2.92;;;;;;;17.17;46.91;98889.75;4993520;28;20482;-68
2022/05/16 07:37:04;;;;;;;9.35;3.22;;;;;;;17.29;46.59;98889.09;4993054;28;20066;-68
2022/05/16 07:39:30;;;;;;;5.75;3.13;;;;;;;17.42;46.60;98888.03;4989211;28;20058;-68
2022/05/16 07:41:55;;;;;;;5.50;2.75;;;;;;;17.52;46.16;98887.69;4990273;28;20125;-69
2022/05/16 07:44:21;;;;;;;5.78;3.20;;;;;;;17.61;45.80;98887.66;4992572;28;20471;-73
2022/05/16 07:46:46;;;;;;;6.80;3.53;;;;;;;17.71;46.32;98889.25;4992503;28;20031;-70
2022/05/16 07:49:13;;;;;;;5.97;3.00;;;;;;;17.74;46.31;98891.34;4993291;28;20089;-68
2022/05/16 07:51:39;;;;;;;6.97;3.65;;;;;;;17.80;46.11;98889.22;4993382;28;20022;-69
2022/05/16 07:54:05;;;;;;;8.38;3.70;;;;;;;17.84;46.19;98888.19;4992679;28;20034;-67
2022/05/16 07:56:32;;;;;;;9.73;3.05;;;;;;;17.88;45.44;98879.19;4992310;28;20422;-68
2022/05/16 07:58:58;;;;;;;6.53;3.08;;;;;;;17.93;45.42;98881.78;4988848;28;20023;-67
2022/05/16 08:01:23;;;;;;;7.32;2.90;;;;;;;18.01;45.01;98869.88;4996691;28;20430;-68
2022/05/16 08:03:49;;;;;;;6.32;2.80;;;;;;;18.09;44.96;98879.28;4995412;28;20022;-68
2022/05/16 08:06:14;;;;;;;6.55;3.10;;;;;;;18.14;44.79;98876.31;4991846;28;20087;-68
2022/05/16 08:11:24;;;;;;;6.93;2.50;;;;;;;18.27;44.25;98869.69;4993439;28;20509;-68
2022/05/16 08:13:49;;;;;;;5.93;2.45;;;;;;;18.36;44.43;98866.84;4991516;28;20022;-68
2022/05/16 08:16:14;;;;;;;4.25;2.08;;;;;;;18.45;43.70;98866.75;4990999;28;20027;-68
2022/05/16 08:18:41;;;;;;;5.53;2.20;;;;;;;18.50;43.45;98865.75;4993112;28;20023;-67
2022/05/16 08:21:08;;;;;;;5.72;2.03;;;;;;;18.56;43.67;98867.16;4992288;28;20026;-67
2022/05/16 08:23:34;;;;;;;3.65;1.17;;;;;;;18.60;42.87;98857.81;4991942;28;20046;-67
2022/05/16 08:26:03;;;;;;;3.25;1.40;;;;;;;18.65;42.44;98867.09;4992883;28;20023;-69
2022/05/16 08:28:29;;;;;;;2.75;1.60;;;;;;;18.68;41.75;98858.88;4986927;28;20048;-67
2022/05/16 08:30:54;;;;;;;4.65;1.75;;;;;;;18.73;41.50;98860.66;4991083;28;20501;-68
2022/05/16 08:33:20;;;;;;;4.30;1.90;;;;;;;18.76;41.36;98862.72;4989870;28;20084;-68
2022/05/16 08:39:52;;;;;;;4.82;2.10;;;;;;;18.80;41.08;98865.66;4989323;28;20026;-68
2022/05/16 08:41:17;;;;;;;4.00;1.75;;;;;;;18.90;41.31;98860.47;4990552;28;20049;-69
2022/05/16 08:44:07;;;;;;;4.53;1.73;;;;;;;18.98;41.25;98858.00;4986436;28;20054;-67
2022/05/16 08:46:32;;;;;;;2.90;1.75;;;;;;;19.04;40.84;98862.19;4987466;28;20036;-69
2022/05/16 08:49:06;;;;;;;3.58;1.80;;;;;;;19.12;40.83;98863.22;4989107;28;20030;-69
2022/05/16 08:51:33;;;;;;;4.13;1.88;;;;;;;19.19;40.70;98861.50;4986458;28;20037;-69
2022/05/16 08:54:37;;;;;;;4.05;1.85;;;;;;;19.25;40.40;98853.78;4986827;28;20105;-69
2022/05/16 08:57:06;;;;;;;44.47;3.70;;;;;;;19.38;40.81;98860.16;4947663;28;20070;-68
2022/05/16 08:59:35;;;;;;;3.92;1.63;;;;;;;19.49;40.26;98866.06;4981434;28;20049;-69
2022/05/16 09:02:06;;;;;;;4.80;1.77;;;;;;;19.56;39.99;98857.97;4988047;28;20026;-70
2022/05/16 09:05:05;;;;;;;4.80;1.55;;;;;;;19.64;39.66;98847.88;4987613;28;20109;-71
2022/05/16 09:07:45;;;;;;;4.03;1.60;;;;;;;19.73;39.53;98850.56;4978427;28;20045;-68
2022/05/16 09:10:11;;;;;;;5.05;1.40;;;;;;;;;;4990852;28;20038;-68
2022/05/16 09:12:54;;;;;;;3.90;1.50;;;;;;;19.81;38.66;98860.75;4990259;28;20085;-67
2022/05/16 09:15:37;;;;;;;2.28;1.60;;;;;;;19.84;38.52;98846.13;4990561;28;20027;-67
2022/05/16 09:18:19;;;;;;;5.30;1.58;;;;;;;19.88;38.23;98855.44;4986394;28;20112;-66
2022/05/16 09:21:14;;;;;;;4.10;1.60;;;;;;;19.90;37.99;98853.13;4990087;28;20034;-68
2022/05/16 09:23:52;;;;;;;3.65;1.42;;;;;;;19.94;37.99;98850.47;4991896;28;20132;-68
2022/05/16 09:26:32;;;;;;;2.70;1.42;;;;;;;20.00;37.41;98845.47;4990178;28;20117;-68
2022/05/16 09:29:05;;;;;;;5.60;1.45;;;;;;;20.06;37.66;98847.66;4991061;28;20101;-67
2022/05/16 09:31:39;;;;;;;3.35;1.30;;;;;;;20.14;37.41;98845.91;4990424;28;20033;-68
2022/05/16 09:34:06;;;;;;;2.28;1.20;;;;;;;20.22;37.28;98844.94;4991029;28;20034;-67
2022/05/16 09:36:34;;;;;;;3.28;1.50;;;;;;;20.30;36.95;98840.41;4989062;28;20030;-66
2022/05/16 09:39:00;;;;;;;4.55;1.85;;;;;;;20.35;36.39;98845.75;4990839;28;20034;-67
2022/05/16 09:41:42;;;;;;;6.68;1.83;;;;;;;20.38;36.20;98847.81;4987767;28;20045;-66
2022/05/16 09:44:14;;;;;;;4.72;1.48;;;;;;;20.45;36.14;98852.78;4987675;28;20041;-69
2022/05/16 09:46:42;;;;;;;5.15;1.30;;;;;;;20.53;36.08;98853.81;4989743;28;20093;-67
2022/05/16 09:49:12;;;;;;;2.83;1.38;;;;;;;20.60;35.95;98854.00;4988933;28;20026;-68
2022/05/16 09:51:54;;;;;;;2.85;1.30;;;;;;;20.64;35.79;98854.94;4988747;28;20038;-69
2022/05/16 09:54:37;;;;;;;4.63;1.35;;;;;;;20.71;36.25;98840.38;4988103;28;20538;-69
2022/05/16 09:57:16;;;;;;;3.95;1.10;;;;;;;20.85;35.81;98844.78;4989401;28;20036;-67
2022/05/16 09:59:53;;;;;;;3.03;1.60;;;;;;;20.95;35.73;98849.84;4989165;28;20035;-68
2022/05/16 10:02:29;;;;;;;7.65;1.65;;;;;;;21.03;35.33;98850.84;4986378;28;20054;-68
2022/05/16 10:05:01;;;;;;;3.60;1.50;;;;;;;21.07;35.12;98840.59;4987906;28;20053;-68
2022/05/16 10:07:41;;;;;;;3.78;1.42;;;;;;;21.16;35.19;98846.81;4990266;28;20046;-69
2022/05/16 10:10:09;;;;;;;2.95;1.40;;;;;;;21.27;34.80;98844.28;4989052;28;20042;-68
2022/05/16 10:12:35;;;;;;;3.72;1.15;;;;;;;21.31;34.30;98839.63;4985886;28;20026;-68
2022/05/16 10:15:00;;;;;;;3.50;1.50;;;;;;;21.35;34.64;98842.50;4988795;28;20057;-70
2022/05/16 10:17:32;;;;;;;2.65;1.90;;;;;;;21.45;34.78;98839.16;4987403;28;20080;-68
2022/05/16 10:20:09;;;;;;;2.67;1.60;;;;;;;21.58;35.40;98830.72;4986003;28;20030;-68
2022/05/16 10:22:36;;;;;;;5.00;1.40;;;;;;;21.70;34.98;98828.66;4987030;28;20080;-69
2022/05/16 10:25:09;;;;;;;3.03;1.48;;;;;;;21.86;34.80;98834.22;4990109;28;20088;-69
2022/05/16 10:27:37;;;;;;;1.80;1.20;;;;;;;21.95;34.50;98827.63;4985395;28;20042;-69
2022/05/16 10:30:21;;;;;;;4.93;1.70;;;;;;;21.99;34.06;98822.94;4987919;28;20026;-68
2022/05/16 10:35:48;;;;;;;5.07;1.65;;;;;;;22.12;33.82;98834.78;4987663;28;20133;-68
2022/05/16 10:38:21;;;;;;;2.25;1.98;;;;;;;22.14;33.30;98824.84;4985674;28;20027;-67
2022/05/16 10:40:54;;;;;;;3.88;2.15;;;;;;;22.20;33.47;98828.19;4989801;28;20117;-68
2022/05/16 10:43:39;;;;;;;2.58;1.40;;;;;;;22.19;32.99;98825.75;4984604;28;20042;-68
2022/05/16 10:46:10;;;;;;;1.73;1.23;;;;;;;22.18;32.78;98830.53;4985428;28;20030;-68
2022/05/16 10:48:55;;;;;;;5.72;1.20;;;;;;;22.19;32.64;98822.94;4991154;28;20085;-67
2022/05/16 10:51:57;;;;;;;3.35;1.40;;;;;;;22.20;32.62;98819.81;4993223;28;20042;-68
2022/05/16 10:54:24;;;;;;;3.65;1.23;;;;;;;22.26;32.77;98818.31;4982474;28;20105;-68
2022/05/16 10:57:14;;;;;;;4.03;1.30;;;;;;;22.45;33.34;98819.53;4990371;28;20041;-73
2022/05/16 10:59:59;;;;;;;2.60;1.48;;;;;;;22.62;33.29;98809.91;4990669;28;20031;-75
2022/05/16 11:02:52;;;;;;;2.45;1.10;;;;;;;22.77;33.29;98813.78;4993275;28;20034;-75
2022/05/16 11:05:45;;;;;;;4.22;1.27;;;;;;;22.86;32.56;98805.97;4988633;28;20125;-76
2022/05/16 11:08:36;;;;;;;1.92;1.08;;;;;;;22.94;32.59;98801.31;4990612;28;20085;-77
2022/05/16 11:11:34;;;;;;;13.80;1.55;;;;;;;23.02;33.10;98805.84;4991872;28;20034;-81
2022/05/16 11:14:10;;;;;;;3.67;1.30;;;;;;;23.15;32.98;98794.50;4993266;28;20034;-75
2022/05/16 11:16:40;;;;;;;3.45;1.27;;;;;;;23.23;33.20;98796.25;4993327;28;20101;-75
2022/05/16 11:19:56;;;;;;;3.25;1.30;;;;;;;23.29;33.06;98803.16;4994039;28;20046;-77
2022/05/16 11:22:30;;;;;;;5.53;1.73;;;;;;;23.35;32.23;98795.28;4968071;28;20041;-74
2022/05/16 11:25:23;;;;;;;3.38;1.35;;;;;;;23.43;32.54;98804.59;4992829;28;20085;-78
2022/05/16 11:28:11;;;;;;;2.20;1.20;;;;;;;23.54;32.35;98797.16;4990820;28;20495;-77
2022/05/16 11:31:05;;;;;;;2.65;1.25;;;;;;;23.58;31.68;98798.03;4993684;28;20030;-77
2022/05/16 11:34:00;;;;;;;3.65;1.48;;;;;;;23.61;30.99;98793.66;4989022;28;20034;-73
2022/05/16 11:36:45;;;;;;;4.18;1.40;;;;;;;23.55;31.10;98793.19;4983034;28;20038;-79
2022/05/16 11:39:16;;;;;;;4.00;1.40;;;;;;;23.53;30.87;98789.13;4992191;28;20077;-79
2022/05/16 11:42:07;;;;;;;6.97;1.38;;;;;;;23.53;31.35;98780.72;4990957;28;20045;-78
2022/05/16 11:44:59;;;;;;;2.90;1.35;;;;;;;23.66;31.56;98786.94;4992770;28;20049;-81
2022/05/16 11:47:36;;;;;;;4.07;1.70;;;;;;;23.73;31.37;98768.25;4992451;28;20468;-79
2022/05/16 11:50:31;;;;;;;2.88;1.50;;;;;;;23.79;31.31;98765.94;4993110;28;20462;-81
2022/05/16 11:53:11;;;;;;;3.03;1.20;;;;;;;23.86;31.25;98766.03;4991565;28;20034;-77
2022/05/16 12:01:30;;;;;;;1.67;1.27;;;;;;;24.09;31.16;98748.34;4993564;28;20044;-76
2022/05/16 12:04:35;;;;;;;2.72;1.30;;;;;;;24.16;31.05;98750.47;4993084;28;20538;-77
2022/05/16 12:07:02;;;;;;;4.20;1.63;;;;;;;24.18;30.72;98734.88;4985586;28;20129;-76
2022/05/16 12:09:32;;;;;;;3.33;1.40;;;;;;;24.25;30.53;98741.75;4990828;28;20026;-78
2022/05/16 12:12:08;;;;;;;3.42;1.25;;;;;;;24.28;30.23;98746.59;4992476;28;20483;-73
2022/05/16 12:14:36;;;;;;;3.53;1.27;;;;;;;24.36;30.31;98754.69;4991787;28;20050;-74
2022/05/16 12:17:07;;;;;;;2.10;1.45;;;;;;;24.45;29.55;98742.38;4992131;28;20026;-75